createdAt,value
2018-04-24T00:02:17.534Z,58.05
2018-04-24T00:04:48.543Z,58.19
2018-04-24T00:07:19.523Z,58.21
2018-04-24T00:09:50.603Z,58.90
2018-04-24T00:12:21.569Z,58.84
2018-04-24T00:14:52.582Z,58.68
2018-04-24T00:17:23.610Z,58.72
2018-04-24T00:19:54.654Z,58.58
2018-04-24T00:22:25.672Z,58.55
2018-04-24T00:24:56.696Z,58.12
2018-04-24T00:27:27.696Z,57.98
2018-04-24T00:29:58.678Z,57.85
2018-04-24T00:32:29.726Z,57.93
2018-04-24T00:35:00.715Z,58.02
2018-04-24T00:37:31.723Z,58.13
2018-04-24T00:40:02.787Z,58.33
2018-04-24T00:42:33.821Z,58.73
2018-04-24T00:45:04.795Z,58.81
2018-04-24T00:47:35.833Z,58.93
2018-04-24T00:50:06.857Z,58.93
2018-04-24T00:52:37.921Z,59.13
2018-04-24T00:55:08.925Z,59.12
2018-04-24T00:57:39.932Z,59.18
2018-04-24T01:00:10.910Z,59.23
2018-04-24T01:49:37.208Z,60.74
2018-04-24T01:52:08.238Z,60.62
2018-04-24T01:54:39.279Z,60.60
2018-04-24T01:57:10.290Z,60.48
2018-04-24T01:59:41.315Z,60.69
2018-04-24T02:02:12.303Z,60.64
2018-04-24T02:04:43.287Z,60.41
2018-04-24T02:07:14.296Z,60.36
2018-04-24T02:09:45.279Z,60.14
2018-04-24T02:12:16.299Z,60.00
2018-04-24T02:14:47.274Z,59.72
2018-04-24T02:17:18.250Z,59.80
2018-04-24T02:19:49.306Z,59.91
2018-04-24T02:22:20.301Z,59.88
2018-04-24T02:24:51.342Z,59.77
2018-04-24T02:27:22.312Z,59.89
2018-04-24T02:29:53.338Z,60.07
2018-04-24T02:32:24.416Z,60.04
2018-04-24T02:34:55.397Z,59.90
2018-04-24T02:37:26.436Z,59.86
2018-04-24T02:39:57.434Z,59.80
2018-04-24T02:42:28.520Z,59.88
2018-04-24T02:44:59.493Z,60.38
2018-04-24T02:47:30.469Z,61.09
2018-04-24T02:50:01.452Z,61.77
2018-04-24T02:52:32.398Z,62.35
2018-04-24T02:55:03.410Z,62.58
2018-04-24T02:57:34.388Z,63.12
2018-04-24T03:00:05.421Z,63.65
2018-04-24T03:02:36.411Z,63.92
2018-04-24T03:05:07.432Z,64.61
2018-04-24T03:07:38.415Z,65.34
2018-04-24T03:10:09.484Z,65.43
2018-04-24T03:12:40.501Z,65.76
2018-04-24T03:15:11.467Z,65.84
2018-04-24T03:17:42.438Z,66.39
2018-04-24T03:20:13.475Z,66.56
2018-04-24T03:22:44.496Z,66.49
2018-04-24T03:25:15.545Z,66.62
2018-04-24T03:27:46.565Z,66.71
2018-04-24T03:30:17.539Z,67.24
2018-04-24T03:32:48.560Z,67.36
2018-04-24T03:35:19.559Z,67.63
2018-04-24T03:37:50.563Z,67.69
2018-04-24T03:40:21.602Z,67.95
2018-04-24T03:42:52.601Z,67.98
2018-04-24T03:45:23.643Z,68.20
2018-04-24T03:47:54.662Z,68.43
2018-04-24T03:50:25.704Z,68.44
2018-04-24T03:52:56.724Z,68.63
2018-04-24T03:55:27.769Z,68.85
2018-04-24T03:57:58.766Z,69.05
2018-04-24T04:00:29.764Z,69.11
2018-04-24T04:03:00.757Z,69.02
2018-04-24T04:05:31.735Z,69.17
2018-04-24T04:08:02.754Z,69.25
2018-04-24T04:10:33.771Z,69.43
2018-04-24T04:13:04.830Z,69.37
2018-04-24T04:15:35.849Z,69.55
2018-04-24T04:18:19.303Z,69.48
2018-04-24T04:21:02.539Z,69.50
2018-04-24T04:23:45.870Z,69.37
2018-04-24T04:26:16.866Z,69.33
2018-04-24T04:28:48.726Z,69.18
2018-04-24T04:31:19.739Z,68.79
2018-04-24T04:33:50.738Z,68.45
2018-04-24T04:36:21.740Z,68.20
2018-04-24T04:38:59.786Z,67.86
2018-04-24T04:41:30.786Z,67.57
2018-04-24T04:44:01.788Z,67.13
2018-04-24T04:46:32.783Z,66.72
2018-04-24T04:49:03.774Z,66.46
2018-04-24T04:51:34.786Z,66.05
2018-04-24T04:54:05.717Z,66.00
2018-04-24T04:56:36.728Z,65.77
2018-04-24T04:59:07.731Z,65.41
2018-04-24T05:01:38.738Z,65.04
2018-04-24T05:04:09.739Z,64.71
2018-04-24T05:06:40.750Z,64.29
2018-04-24T05:09:11.724Z,63.88
2018-04-24T05:11:42.756Z,63.56
2018-04-24T05:14:13.748Z,63.15
2018-04-24T05:16:44.780Z,62.86
2018-04-24T05:19:15.774Z,62.85
2018-04-24T05:21:46.722Z,62.42
2018-04-24T05:24:17.749Z,61.70
2018-04-24T05:26:48.762Z,60.99
2018-04-24T05:29:19.738Z,60.38
2018-04-24T05:31:50.756Z,60.01
2018-04-24T05:34:21.772Z,59.73
2018-04-24T05:36:52.760Z,59.66
2018-04-24T05:39:23.702Z,59.51
2018-04-24T05:41:54.732Z,59.02
2018-04-24T05:44:25.694Z,58.71
2018-04-24T05:46:56.686Z,58.49
2018-04-24T05:49:27.690Z,57.97
2018-04-24T05:51:58.736Z,57.29
2018-04-24T05:54:29.722Z,56.62
2018-04-24T05:57:00.693Z,56.09
2018-04-24T05:59:31.754Z,55.36
2018-04-24T06:02:02.766Z,54.56
2018-04-24T06:04:33.764Z,53.73
2018-04-24T06:07:04.775Z,53.05
2018-04-24T06:09:35.997Z,52.52
2018-04-24T06:12:06.987Z,51.46
2018-04-24T06:14:38.001Z,51.23
2018-04-24T06:17:08.971Z,50.63
2018-04-24T06:19:39.942Z,49.79
2018-04-24T06:22:10.923Z,48.64
2018-04-24T06:24:41.960Z,48.26
2018-04-24T06:27:12.947Z,48.39
2018-04-24T06:29:44.002Z,46.86
2018-04-24T06:32:15.097Z,42.90
2018-04-24T06:34:46.098Z,39.30
2018-04-24T06:37:17.094Z,36.30
2018-04-24T06:39:48.113Z,34.42
2018-04-24T06:42:19.206Z,32.46
2018-04-24T06:44:50.218Z,31.92
2018-04-24T06:47:21.200Z,28.66
2018-04-24T06:49:52.172Z,29.33
2018-04-24T06:52:23.222Z,26.81
2018-04-24T06:54:54.266Z,23.84
2018-04-24T06:57:25.256Z,23.48
2018-04-24T06:59:56.260Z,24.24
2018-04-24T07:02:27.262Z,25.32
2018-04-24T07:04:58.275Z,22.28
2018-04-24T07:07:29.252Z,20.52
2018-04-24T07:10:00.290Z,21.08
2018-04-24T07:12:31.271Z,19.37
2018-04-24T07:15:02.307Z,16.33
2018-04-24T07:17:33.286Z,14.68
2018-04-24T07:20:04.292Z,14.03
2018-04-24T07:22:35.284Z,12.75
2018-04-24T07:25:06.326Z,14.67
2018-04-24T07:27:37.301Z,17.81
2018-04-24T07:30:08.361Z,20.32
2018-04-24T07:32:39.378Z,22.40
2018-04-24T07:35:10.417Z,20.30
2018-04-24T07:37:41.459Z,17.04
2018-04-24T07:40:12.583Z,15.32
2018-04-24T07:42:43.589Z,14.40
2018-04-24T07:45:14.544Z,14.86
2018-04-24T07:47:45.595Z,13.95
2018-04-24T07:50:16.662Z,11.84
2018-04-24T07:52:47.646Z,12.29
2018-04-24T07:55:18.577Z,11.68
2018-04-24T07:57:49.661Z,11.15
2018-04-24T08:00:20.682Z,10.17
2018-04-24T08:02:51.680Z,8.84
2018-04-24T08:05:22.674Z,8.30
2018-04-24T08:07:53.680Z,10.54
2018-04-24T08:10:24.681Z,9.30
2018-04-24T08:12:55.639Z,9.73
2018-04-24T08:15:26.666Z,8.86
2018-04-24T08:17:57.711Z,8.26
2018-04-24T08:20:28.671Z,8.01
2018-04-24T08:22:59.730Z,9.54
2018-04-24T08:25:30.779Z,10.05
2018-04-24T08:28:01.792Z,8.37
2018-04-24T08:30:32.809Z,8.74
2018-04-24T08:33:03.816Z,10.52
2018-04-24T08:35:34.820Z,11.52
2018-04-24T08:38:05.798Z,10.82
2018-04-24T08:40:36.813Z,12.94
2018-04-24T08:43:07.811Z,11.90
2018-04-24T08:45:38.782Z,9.75
2018-04-24T08:48:09.731Z,9.09
2018-04-24T08:50:40.754Z,10.96
2018-04-24T08:53:11.767Z,12.85
2018-04-24T08:55:42.756Z,11.65
2018-04-24T08:58:13.746Z,11.29
2018-04-24T09:00:44.749Z,12.86
2018-04-24T09:03:15.732Z,14.55
2018-04-24T09:05:46.780Z,16.05
2018-04-24T09:08:17.904Z,15.77
2018-04-24T09:10:48.892Z,12.66
2018-04-24T09:13:19.867Z,10.20
2018-04-24T09:15:50.861Z,8.96
2018-04-24T09:18:21.887Z,10.03
2018-04-24T09:20:52.945Z,12.42
2018-04-24T09:23:23.965Z,14.55
2018-04-24T09:25:54.991Z,14.09
2018-04-24T09:28:25.954Z,11.74
2018-04-24T09:30:56.976Z,9.67
2018-04-24T09:33:27.943Z,9.63
2018-04-24T09:35:58.949Z,11.61
2018-04-24T09:38:30.020Z,14.37
2018-04-24T09:41:01.065Z,13.64
2018-04-24T09:43:32.095Z,14.82
2018-04-24T09:46:03.148Z,16.51
2018-04-24T09:48:34.118Z,18.22
2018-04-24T09:51:05.109Z,16.42
2018-04-24T09:53:36.069Z,13.44
2018-04-24T09:56:07.068Z,11.52
2018-04-24T09:58:38.070Z,9.74
2018-04-24T10:01:09.108Z,9.44
2018-04-24T10:03:40.115Z,9.96
2018-04-24T10:06:11.136Z,9.36
2018-04-24T10:08:42.133Z,9.30
2018-04-24T10:11:13.412Z,9.61
2018-04-24T10:13:44.429Z,11.53
2018-04-24T10:16:15.472Z,13.26
2018-04-24T10:18:46.480Z,11.74
2018-04-24T10:21:17.504Z,10.07
2018-04-24T10:23:48.586Z,9.06
2018-04-24T10:26:19.569Z,8.66
2018-04-24T10:28:50.599Z,8.50
2018-04-24T10:31:21.584Z,8.32
2018-04-24T10:33:52.648Z,8.46
2018-04-24T10:36:23.689Z,8.43
2018-04-24T10:38:54.667Z,8.55
2018-04-24T10:41:25.708Z,8.68
2018-04-24T10:43:56.763Z,8.34
2018-04-24T10:46:27.759Z,8.36
2018-04-24T10:48:58.778Z,8.16
2018-04-24T10:51:29.798Z,7.29
2018-04-24T10:54:00.836Z,7.63
2018-04-24T10:56:31.949Z,8.52
2018-04-24T10:59:02.950Z,9.39
2018-04-24T11:01:33.966Z,9.91
2018-04-24T11:04:04.990Z,11.34
2018-04-24T11:06:36.028Z,12.49
2018-04-24T11:09:07.024Z,13.07
2018-04-24T11:11:38.060Z,14.06
2018-04-24T11:14:09.108Z,15.45
2018-04-24T11:16:40.114Z,16.15
2018-04-24T11:19:11.171Z,16.36
2018-04-24T11:21:42.173Z,16.50
2018-04-24T11:24:13.162Z,16.28
2018-04-24T11:26:44.299Z,16.15
2018-04-24T11:29:15.240Z,15.96
2018-04-24T11:31:46.228Z,16.22
2018-04-24T11:34:17.287Z,16.92
2018-04-24T11:36:48.293Z,17.57
2018-04-24T11:39:19.338Z,18.30
2018-04-24T11:41:50.326Z,18.88
2018-04-24T11:44:21.335Z,18.94
2018-04-24T11:46:52.350Z,18.74
2018-04-24T11:49:23.313Z,18.73
2018-04-24T11:51:54.304Z,18.66
2018-04-24T11:54:25.296Z,18.29
2018-04-24T11:56:56.314Z,18.63
2018-04-24T11:59:27.324Z,19.20
2018-04-24T12:01:58.319Z,19.29
2018-04-24T12:04:29.304Z,19.23
2018-04-24T12:07:00.320Z,19.21
2018-04-24T12:09:31.317Z,19.63
2018-04-24T12:12:02.355Z,20.45
2018-04-24T12:14:33.386Z,20.44
2018-04-24T12:17:04.363Z,20.21
2018-04-24T12:19:35.347Z,20.88
2018-04-24T12:22:06.339Z,20.53
2018-04-24T12:24:37.319Z,19.95
2018-04-24T12:27:08.337Z,19.69
2018-04-24T12:29:39.398Z,20.06
2018-04-24T12:32:10.395Z,19.96
2018-04-24T12:34:41.388Z,19.95
2018-04-24T12:37:12.355Z,19.79
2018-04-24T12:39:43.354Z,19.91
2018-04-24T12:42:14.360Z,19.71
2018-04-24T12:44:45.424Z,19.01
2018-04-24T12:47:16.475Z,18.69
2018-04-24T12:49:47.477Z,18.56
2018-04-24T12:52:18.499Z,18.52
2018-04-24T12:54:49.569Z,18.17
2018-04-24T12:57:20.583Z,17.76
2018-04-24T12:59:51.619Z,18.34
2018-04-24T13:02:22.620Z,18.31
2018-04-24T13:04:53.593Z,18.72
2018-04-24T13:07:24.559Z,18.67
2018-04-24T13:09:55.552Z,18.33
2018-04-24T13:12:26.545Z,18.68
2018-04-24T13:14:57.517Z,18.46
2018-04-24T13:17:28.520Z,18.19
2018-04-24T13:19:59.507Z,17.97
2018-04-24T13:22:30.573Z,18.49
2018-04-24T13:25:01.580Z,19.36
2018-04-24T13:27:32.623Z,19.31
2018-04-24T13:30:03.661Z,19.25
2018-04-24T13:32:34.666Z,19.34
2018-04-24T13:35:05.684Z,19.80
2018-04-24T13:37:36.682Z,19.77
2018-04-24T13:40:07.731Z,20.28
2018-04-24T13:42:38.732Z,20.25
2018-04-24T13:45:09.744Z,20.00
2018-04-24T13:47:40.713Z,20.06
2018-04-24T13:50:11.747Z,19.55
2018-04-24T13:52:42.720Z,19.59
2018-04-24T13:55:13.713Z,19.72
2018-04-24T13:57:44.710Z,19.56
2018-04-24T14:00:15.732Z,19.39
2018-04-24T14:02:46.783Z,19.51
2018-04-24T14:05:17.765Z,19.62
2018-04-24T14:07:48.891Z,19.49
2018-04-24T14:10:19.870Z,19.15
2018-04-24T14:12:50.898Z,18.89
2018-04-24T14:15:28.833Z,19.09
2018-04-24T14:17:59.825Z,20.18
2018-04-24T14:20:30.871Z,21.07
2018-04-24T14:23:01.870Z,21.11
2018-04-24T14:25:32.909Z,21.52
2018-04-24T14:28:03.924Z,21.65
2018-04-24T14:30:34.937Z,21.30
2018-04-24T14:33:05.935Z,21.55
2018-04-24T14:35:36.996Z,21.30
2018-04-24T14:38:07.970Z,21.25
2018-04-24T14:40:38.950Z,20.57
2018-04-24T14:43:09.953Z,20.22
2018-04-24T14:45:40.987Z,19.93
2018-04-24T14:48:12.000Z,19.24
2018-04-24T14:50:43.008Z,19.16
2018-04-24T14:53:14.043Z,19.24
2018-04-24T14:55:44.987Z,19.32
2018-04-24T14:58:15.994Z,19.39
2018-04-24T15:00:47.025Z,19.96
2018-04-24T15:03:18.047Z,19.92
2018-04-24T15:05:49.089Z,19.67
2018-04-24T15:08:20.101Z,19.79
2018-04-24T15:10:51.100Z,19.54
2018-04-24T15:13:22.096Z,19.43
2018-04-24T15:15:53.083Z,19.63
2018-04-24T15:18:24.056Z,19.77
2018-04-24T15:20:55.088Z,20.20
2018-04-24T15:23:26.135Z,20.62
2018-04-24T15:25:57.144Z,20.84
2018-04-24T15:28:28.308Z,20.69
2018-04-24T15:30:59.322Z,20.94
2018-04-24T15:33:30.327Z,21.44
2018-04-24T15:36:01.328Z,21.59
2018-04-24T15:38:32.326Z,21.94
2018-04-24T15:41:03.355Z,22.13
2018-04-24T15:43:34.362Z,22.22
2018-04-24T15:46:05.407Z,22.60
2018-04-24T15:48:36.407Z,22.56
2018-04-24T15:51:08.186Z,22.33
2018-04-24T15:53:39.405Z,22.46
2018-04-24T15:56:10.434Z,22.69
2018-04-24T15:58:41.413Z,22.61
2018-04-24T16:01:12.851Z,22.77
2018-04-24T16:03:45.533Z,23.20
2018-04-24T16:06:18.219Z,23.30
2018-04-24T16:08:49.324Z,23.29
2018-04-24T16:11:20.416Z,23.11
2018-04-24T16:13:51.480Z,23.42
2018-04-24T16:16:22.523Z,23.69
2018-04-24T16:18:53.648Z,23.75
2018-04-24T16:21:24.663Z,23.79
2018-04-24T16:23:55.730Z,23.95
2018-04-24T16:26:26.756Z,24.08
2018-04-24T16:28:57.754Z,24.18
2018-04-24T16:31:28.776Z,24.21
2018-04-24T16:33:59.756Z,24.39
2018-04-24T16:36:30.780Z,24.60
2018-04-24T16:39:01.794Z,24.71
2018-04-24T16:41:32.929Z,25.13
2018-04-24T16:44:03.944Z,25.42
2018-04-24T16:46:35.009Z,24.94
2018-04-24T16:49:05.991Z,24.85
2018-04-24T16:51:36.967Z,25.03
2018-04-24T16:54:07.965Z,25.24
2018-04-24T16:56:38.973Z,25.29
2018-04-24T16:59:09.984Z,25.60
2018-04-24T17:01:40.953Z,25.78
2018-04-24T17:04:11.960Z,25.95
2018-04-24T17:06:43.284Z,26.31
2018-04-24T17:09:14.327Z,26.18
2018-04-24T17:11:45.348Z,26.48
2018-04-24T17:14:16.333Z,26.55
2018-04-24T17:16:47.347Z,26.65
2018-04-24T17:19:18.344Z,26.85
2018-04-24T17:21:49.378Z,27.22
2018-04-24T17:24:20.368Z,27.58
2018-04-24T17:26:51.382Z,27.97
2018-04-24T17:29:22.387Z,28.10
2018-04-24T17:31:53.361Z,28.47
2018-04-24T17:34:24.379Z,28.53
2018-04-24T17:36:55.461Z,28.71
2018-04-24T17:39:26.463Z,28.81
2018-04-24T17:41:57.473Z,28.84
2018-04-24T17:44:28.503Z,29.05
2018-04-24T17:46:59.514Z,29.14
2018-04-24T17:49:30.524Z,29.47
2018-04-24T17:52:01.543Z,29.63
2018-04-24T17:54:32.532Z,30.32
2018-04-24T17:57:03.552Z,30.07
2018-04-24T17:59:34.514Z,30.39
2018-04-24T18:02:05.571Z,30.92
2018-04-24T18:04:36.587Z,31.05
2018-04-24T18:07:07.642Z,31.66
2018-04-24T18:09:38.616Z,32.05
2018-04-24T18:12:09.588Z,32.42
2018-04-24T18:14:40.594Z,33.08
2018-04-24T18:17:11.572Z,33.42
2018-04-24T18:19:42.574Z,34.15
2018-04-24T18:22:13.576Z,34.76
2018-04-24T18:24:44.588Z,35.27
2018-04-24T18:27:15.668Z,35.66
2018-04-24T18:29:46.598Z,35.92
2018-04-24T18:32:17.586Z,36.14
2018-04-24T18:34:49.538Z,36.50
2018-04-24T18:37:20.647Z,36.85
2018-04-24T18:39:51.650Z,37.13
2018-04-24T18:42:22.672Z,37.49
2018-04-24T18:44:54.029Z,37.84
2018-04-24T18:47:25.128Z,38.18
2018-04-24T18:49:56.119Z,38.54
2018-04-24T18:52:27.124Z,38.82
2018-04-24T18:54:58.130Z,39.09
2018-04-24T18:57:29.079Z,39.53
2018-04-24T19:00:00.090Z,39.82
2018-04-24T19:02:31.144Z,39.90
2018-04-24T19:05:02.209Z,39.86
2018-04-24T19:07:33.632Z,39.43
2018-04-24T19:10:04.677Z,39.25
2018-04-24T19:12:35.691Z,39.57
2018-04-24T19:15:06.709Z,39.12
2018-04-24T19:17:37.730Z,40.15
2018-04-24T19:20:09.059Z,40.50
2018-04-24T19:22:40.147Z,40.43
2018-04-24T19:25:17.256Z,40.61
2018-04-24T19:27:48.292Z,40.89
2018-04-24T19:30:19.288Z,40.40
2018-04-24T19:32:50.291Z,40.10
2018-04-24T19:35:21.306Z,40.14
2018-04-24T19:37:52.348Z,39.71
2018-04-24T19:40:29.328Z,39.62
2018-04-24T19:43:00.370Z,39.61
2018-04-24T19:45:31.418Z,39.95
2018-04-24T19:48:02.459Z,39.84
2018-04-24T19:50:33.451Z,39.76
2018-04-24T19:53:04.456Z,40.27
2018-04-24T19:55:35.458Z,41.44
2018-04-24T19:58:06.428Z,42.51
2018-04-24T20:00:37.452Z,43.31
2018-04-24T20:03:08.433Z,43.59
2018-04-24T20:05:39.505Z,43.62
2018-04-24T20:08:10.454Z,44.07
2018-04-24T20:10:41.435Z,44.74
2018-04-24T20:13:12.388Z,45.11
2018-04-24T20:15:43.405Z,44.83
2018-04-24T20:18:14.415Z,45.31
2018-04-24T20:20:45.375Z,45.89
2018-04-24T20:23:16.401Z,46.33
2018-04-24T20:25:47.443Z,46.46
2018-04-24T20:28:18.428Z,46.71
2018-04-24T20:30:49.496Z,46.77
2018-04-24T20:33:20.536Z,46.89
2018-04-24T20:35:51.566Z,46.98
2018-04-24T20:38:22.546Z,47.13
2018-04-24T20:40:53.514Z,47.00
2018-04-24T20:43:24.484Z,47.20
2018-04-24T20:45:56.493Z,47.36
2018-04-24T20:48:27.901Z,47.55
2018-04-24T20:50:59.252Z,48.19
2018-04-24T20:53:30.314Z,48.92
2018-04-24T20:56:01.262Z,49.42
2018-04-24T20:58:32.280Z,49.65
2018-04-24T21:01:03.366Z,49.44
2018-04-24T21:03:34.322Z,49.20
2018-04-24T21:06:05.396Z,49.07
2018-04-24T21:08:36.362Z,49.22
2018-04-24T21:11:07.341Z,49.19
2018-04-24T21:13:38.347Z,49.65
2018-04-24T21:16:09.315Z,50.22
2018-04-24T21:18:40.295Z,50.16
2018-04-24T21:21:11.255Z,50.39
2018-04-24T21:23:42.268Z,50.71
2018-04-24T21:26:13.253Z,50.85
2018-04-24T21:28:59.205Z,50.38
2018-04-24T21:31:30.172Z,50.67
2018-04-24T21:34:01.189Z,50.90
2018-04-24T21:36:32.170Z,51.05
2018-04-24T21:39:03.291Z,51.49
2018-04-24T21:41:34.298Z,51.83
2018-04-24T21:44:05.298Z,52.11
2018-04-24T21:46:36.315Z,52.32
2018-04-24T21:49:07.374Z,52.49
2018-04-24T21:51:38.355Z,53.32
2018-04-24T21:54:09.349Z,54.64
2018-04-24T21:56:40.332Z,54.88
2018-04-24T21:59:11.338Z,54.72
2018-04-24T22:01:42.403Z,54.92
2018-04-24T22:04:13.417Z,54.72
2018-04-24T22:06:44.477Z,54.75
2018-04-24T22:09:15.477Z,54.83
2018-04-24T22:11:46.502Z,55.04
2018-04-24T22:14:17.561Z,54.89
2018-04-24T22:16:48.540Z,54.97
2018-04-24T22:19:19.535Z,55.05
2018-04-24T22:21:50.479Z,55.53
2018-04-24T22:24:21.475Z,55.52
2018-04-24T22:26:52.468Z,55.55
2018-04-24T22:29:23.431Z,55.48
2018-04-24T22:31:54.437Z,55.56
2018-04-24T22:34:25.433Z,55.42
2018-04-24T22:36:56.440Z,55.55
2018-04-24T22:39:27.416Z,56.18
2018-04-24T22:41:58.393Z,56.70
2018-04-24T22:44:29.405Z,56.79
2018-04-24T22:47:00.427Z,56.96
2018-04-24T22:49:31.410Z,57.06
2018-04-24T22:52:02.455Z,57.46
2018-04-24T22:54:33.417Z,57.75
2018-04-24T22:57:04.431Z,58.07
2018-04-24T22:59:35.401Z,58.47
2018-04-24T23:02:06.413Z,58.91
2018-04-24T23:04:37.418Z,58.87
2018-04-24T23:07:08.414Z,58.53
2018-04-24T23:09:45.450Z,59.03
2018-04-24T23:12:28.781Z,59.35
2018-04-24T23:15:11.967Z,59.61
2018-04-24T23:17:55.163Z,60.15
2018-04-24T23:20:25.932Z,59.87
2018-04-24T23:22:56.940Z,59.51
2018-04-24T23:25:27.968Z,59.27
2018-04-24T23:27:59.007Z,59.26
2018-04-24T23:30:29.990Z,59.29
2018-04-24T23:33:00.964Z,59.10
2018-04-24T23:35:31.986Z,59.16
2018-04-24T23:38:03.031Z,58.83
2018-04-24T23:40:34.071Z,58.65
2018-04-24T23:43:05.060Z,58.53
2018-04-24T23:45:36.155Z,58.52
2018-04-24T23:48:07.158Z,58.50
2018-04-24T23:50:38.142Z,58.30
2018-04-24T23:53:09.143Z,58.17
2018-04-24T23:55:40.156Z,58.24
2018-04-24T23:58:11.128Z,58.42
